Portada
METAR-TAF:

METAR-TAF

Aeropuertos :

Nuakchot, Mauritania

Aeropuerto Internacional de Nuakchot

latitud: 18-18-36N, longitud: 015-58-11W, altitud: 3 m

Observación

El informe se hizo hace 37 minutos, a las 03:00 UTC
Viento 12 kt del oeste
Temperatura 27°C
Humedad 79%
Presión 1011 hPa
Visibilidad: 8000 m
Nubes dispersas a una altura de 1300 ft

METAR: GQNO 230300Z 26012KT 8000 SCT013 27/23 Q1011 NOSIG

Hora: 03:37 (03:37 UTC)

Pronóstico

El informe se hizo hace 4 horas y 37 minutos, a las 23:00 UTC
Pronóstico válido del 23 a las 00 UTC al 24 a las 06 UTC
Viento 12 kt del oeste-suroeste
Visibilidad: 7000 m
Cielo nuboso a una altura de 1300 ft
Temporalmente
del 23 a las 09 UTC al 23 a las 15 UTC
Nubes dispersas a una altura de 1000 ft

TAF: GQNO 222300Z 2300/2406 25012KT 7000 BKN013 TEMPO 2309/2315 SCT010

Observaciones y pronósticos meteorológicos de más de 4000 aeropuertos (mensajes METAR y TAF).

Los puntos amarillos y rojos representan las estaciones disponibles.

Ponga el ratón en el punto deseado para ver el nombre de la estación.

Haga clic para ver las observaciones y los pronósticos meteorológicos.

Para cambiar el mapa : haga clic en los botones verdes con una cruz de color negro para hacer un zoom, en el botón verde con un guión para alejar o en las flechas verdes para mapas adyacentes.


METAR-TAF: